Time;durP1;ratioP1;P1;durP2;ratioP2;P2;SDS_P1;SDS_P2;PMS_P1;PMS_P2;Temp;Humidity;BMP_temperature;BMP_pressure;BME280_temperature;BME280_humidity;BME280_pressure;Samples;Min_cycle;Max_cycle;Signal;HPM_P1;HPM_P2
2022/06/01 00:01:11;;;;;;;0.10;0.10;;;;;;;;;;5035546;28;98375;-73
2022/06/01 00:03:38;;;;;;;0.00;0.00;;;;;;;;;;5035355;28;99204;-73
2022/06/01 00:06:05;;;;;;;0.00;0.00;;;;;;;;;;5035319;28;98527;-74
2022/06/01 00:08:32;;;;;;;0.00;0.00;;;;;;;;;;5034841;28;98431;-73
2022/06/01 00:10:58;;;;;;;0.00;0.00;;;;;;;;;;5035262;28;100020;-73
2022/06/01 00:13:26;;;;;;;0.00;0.00;;;;;;;;;;5033864;28;100387;-73
2022/06/01 00:15:52;;;;;;;0.00;0.00;;;;;;;;;;5035004;28;98350;-73
2022/06/01 00:18:19;;;;;;;0.00;0.00;;;;;;;;;;5035112;28;99321;-73
2022/06/01 00:20:46;;;;;;;0.00;0.00;;;;;;;;;;5037773;28;101065;-73
2022/06/01 00:23:12;;;;;;;0.05;0.05;;;;;;;;;;5035101;28;98649;-73
2022/06/01 00:25:39;;;;;;;0.10;0.10;;;;;;;;;;5034426;28;99426;-74
2022/06/01 00:28:05;;;;;;;0.00;0.00;;;;;;;;;;5034906;28;98411;-74
2022/06/01 00:30:32;;;;;;;0.00;0.00;;;;;;;;;;5035827;28;99245;-74
2022/06/01 00:32:58;;;;;;;0.10;0.10;;;;;;;;;;5034529;28;99624;-74
2022/06/01 00:35:25;;;;;;;0.00;0.00;;;;;;;;;;5034927;28;98292;-74
2022/06/01 00:37:52;;;;;;;0.63;0.57;;;;;;;;;;5016351;28;100560;-73
2022/06/01 00:40:20;;;;;;;0.00;0.00;;;;;;;;;;5037234;28;99564;-73
2022/06/01 00:42:49;;;;;;;0.00;0.00;;;;;;;;;;5034972;28;99633;-74
2022/06/01 00:45:18;;;;;;;0.45;0.45;;;;;;;;;;5034324;28;99765;-74
2022/06/01 00:47:44;;;;;;;0.10;0.10;;;;;;;;;;5034634;28;99515;-73
2022/06/01 00:50:34;;;;;;;0.00;0.00;;;;;;;;;;5034844;28;99360;-73
2022/06/01 00:53:06;;;;;;;0.00;0.00;;;;;;;;;;5020476;28;99749;-72
2022/06/01 00:55:38;;;;;;;0.10;0.10;;;;;;;;;;5034253;27;97454;-72
2022/06/01 00:58:07;;;;;;;0.00;0.00;;;;;;;;;;5034762;28;98608;-72
2022/06/01 01:00:35;;;;;;;0.00;0.00;;;;;;;;;;5034222;28;99587;-72
2022/06/01 01:03:03;;;;;;;0.00;0.00;;;;;;;;;;5037318;28;99043;-72
2022/06/01 01:05:33;;;;;;;0.00;0.00;;;;;;;;;;5033679;28;99603;-72
2022/06/01 01:08:02;;;;;;;0.00;0.00;;;;;;;;;;5034783;28;98397;-72
2022/06/01 01:10:28;;;;;;;0.00;0.00;;;;;;;;;;5034304;28;99561;-72
2022/06/01 01:13:04;;;;;;;0.00;0.00;;;;;;;;;;5033618;28;101234;-72
2022/06/01 01:15:34;;;;;;;0.00;0.00;;;;;;;;;;5034452;28;98473;-72
2022/06/01 01:18:06;;;;;;;0.00;0.00;;;;;;;;;;5033849;28;99445;-72
2022/06/01 01:20:34;;;;;;;0.10;0.10;;;;;;;;;;5034411;28;98858;-72
2022/06/01 01:23:37;;;;;;;0.10;0.10;;;;;;;;;;5034227;28;98456;-72
2022/06/01 01:26:04;;;;;;;0.00;0.00;;;;;;;;;;4935826;28;99066;-72
2022/06/01 01:28:31;;;;;;;0.00;0.00;;;;;;;;;;5000107;28;99170;-72
2022/06/01 01:31:08;;;;;;;0.00;0.00;;;;;;;;;;5033719;27;100439;-72
2022/06/01 01:33:34;;;;;;;0.00;0.00;;;;;;;;;;5033529;28;99725;-72
2022/06/01 01:36:04;;;;;;;0.00;0.00;;;;;;;;;;5033903;28;98394;-72
2022/06/01 01:38:49;;;;;;;0.00;0.00;;;;;;;;;;5033760;28;98922;-72
2022/06/01 01:41:23;;;;;;;0.00;0.00;;;;;;;;;;5033487;28;99603;-72
2022/06/01 01:44:01;;;;;;;0.00;0.00;;;;;;;;;;5033849;28;98519;-72
2022/06/01 01:46:28;;;;;;;0.00;0.00;;;;;;;;;;5034301;28;99503;-72
2022/06/01 01:48:56;;;;;;;0.00;0.00;;;;;;;;;;5036895;28;99168;-72
2022/06/01 01:51:24;;;;;;;0.30;0.30;;;;;;;;;;5033258;28;98853;-72
2022/06/01 01:53:52;;;;;;;0.00;0.00;;;;;;;;;;5032452;28;100289;-72
2022/06/01 01:56:27;;;;;;;0.10;0.10;;;;;;;;;;5015642;28;98412;-72
2022/06/01 01:59:01;;;;;;;0.40;0.20;;;;;;;;;;5033469;28;98866;-72
2022/06/01 02:01:31;;;;;;;0.00;0.00;;;;;;;;;;5033169;28;99616;-72
2022/06/01 02:04:05;;;;;;;0.00;0.00;;;;;;;;;;5033434;28;99095;-72
2022/06/01 02:06:44;;;;;;;0.00;0.00;;;;;;;;;;5032379;28;99372;-72
2022/06/01 02:09:11;;;;;;;0.00;0.00;;;;;;;;;;5014864;28;100788;-72
2022/06/01 02:14:50;;;;;;;0.00;0.00;;;;;;;;;;4970998;28;100931;-72
2022/06/01 02:17:20;;;;;;;0.00;0.00;;;;;;;;;;4971703;28;98439;-72
2022/06/01 02:19:57;;;;;;;0.00;0.00;;;;;;;;;;5003578;28;99426;-72
2022/06/01 02:22:24;;;;;;;0.00;0.00;;;;;;;;;;5032466;28;99587;-73
2022/06/01 02:24:52;;;;;;;0.00;0.00;;;;;;;;;;5032948;28;98510;-72
2022/06/01 02:27:19;;;;;;;0.00;0.00;;;;;;;;;;5033240;28;99256;-72
2022/06/01 02:29:50;;;;;;;0.00;0.00;;;;;;;;;;5032736;28;99566;-72
2022/06/01 02:32:17;;;;;;;0.00;0.00;;;;;;;;;;5033014;28;98292;-72
2022/06/01 02:34:45;;;;;;;0.00;0.00;;;;;;;;;;5036061;28;99325;-72
2022/06/01 02:37:14;;;;;;;0.20;0.20;;;;;;;;;;5033142;28;97675;-72
2022/06/01 02:39:42;;;;;;;0.00;0.00;;;;;;;;;;5033297;28;98661;-72
2022/06/01 02:42:25;;;;;;;0.00;0.00;;;;;;;;;;5032519;28;99920;-72
2022/06/01 02:44:59;;;;;;;0.00;0.00;;;;;;;;;;5032616;28;98974;-72
2022/06/01 02:47:27;;;;;;;0.10;0.10;;;;;;;;;;5032865;28;100030;-72
2022/06/01 02:49:53;;;;;;;0.00;0.00;;;;;;;;;;5032155;28;99276;-72
2022/06/01 02:52:20;;;;;;;0.00;0.00;;;;;;;;;;5032869;28;98443;-72
2022/06/01 02:54:46;;;;;;;0.00;0.00;;;;;;;;;;5035854;28;99351;-72
2022/06/01 02:57:14;;;;;;;0.00;0.00;;;;;;;;;;5032957;28;98368;-72
2022/06/01 02:59:41;;;;;;;0.00;0.00;;;;;;;;;;5032830;28;99858;-72
2022/06/01 03:02:09;;;;;;;0.00;0.00;;;;;;;;;;5032733;28;99118;-72
2022/06/01 03:04:39;;;;;;;0.00;0.00;;;;;;;;;;5032678;28;98630;-72
2022/06/01 03:07:06;;;;;;;0.00;0.00;;;;;;;;;;5032702;28;99747;-72
2022/06/01 03:09:34;;;;;;;0.00;0.00;;;;;;;;;;5031538;28;100552;-71
2022/06/01 03:12:01;;;;;;;0.00;0.00;;;;;;;;;;5032684;28;98479;-72
2022/06/01 03:14:27;;;;;;;0.20;0.20;;;;;;;;;;5032636;28;99481;-72
2022/06/01 03:16:55;;;;;;;0.00;0.00;;;;;;;;;;5034878;27;99591;-72
2022/06/01 03:19:22;;;;;;;0.00;0.00;;;;;;;;;;5036019;28;98781;-72
2022/06/01 03:21:48;;;;;;;0.00;0.00;;;;;;;;;;5035554;28;99938;-72
2022/06/01 03:24:14;;;;;;;0.00;0.00;;;;;;;;;;5035855;28;98629;-72
2022/06/01 03:26:42;;;;;;;0.00;0.00;;;;;;;;;;5036400;28;99389;-72
2022/06/01 03:29:08;;;;;;;0.00;0.00;;;;;;;;;;5035032;28;99704;-71
2022/06/01 03:31:35;;;;;;;0.00;0.00;;;;;;;;;;5035452;28;98987;-71
2022/06/01 03:34:02;;;;;;;0.10;0.10;;;;;;;;;;5035194;28;99394;-72
2022/06/01 03:36:29;;;;;;;0.00;0.00;;;;;;;;;;5035442;28;99553;-72
2022/06/01 03:38:56;;;;;;;0.00;0.00;;;;;;;;;;5039193;28;98543;-72
2022/06/01 03:41:27;;;;;;;0.00;0.00;;;;;;;;;;5035278;28;99321;-73
2022/06/01 03:46:43;;;;;;;0.10;0.10;;;;;;;;;;4997888;28;99477;-73
2022/06/01 03:49:10;;;;;;;0.00;0.00;;;;;;;;;;5035155;28;99653;-72
2022/06/01 03:51:37;;;;;;;0.00;0.00;;;;;;;;;;5036168;28;97625;-72
2022/06/01 03:54:06;;;;;;;0.00;0.00;;;;;;;;;;5035471;28;98685;-72
2022/06/01 03:56:32;;;;;;;0.00;0.00;;;;;;;;;;5034672;28;99630;-73
2022/06/01 03:58:59;;;;;;;0.00;0.00;;;;;;;;;;5035067;28;99246;-73
2022/06/01 04:01:25;;;;;;;0.00;0.00;;;;;;;;;;5038209;28;100091;-73
2022/06/01 04:03:52;;;;;;;0.00;0.00;;;;;;;;;;5035308;28;98400;-73
2022/06/01 04:06:19;;;;;;;0.20;0.20;;;;;;;;;;5035191;28;99836;-72
2022/06/01 04:08:45;;;;;;;0.00;0.00;;;;;;;;;;5034673;28;99776;-72
2022/06/01 04:11:11;;;;;;;0.00;0.00;;;;;;;;;;5034919;28;98557;-72
2022/06/01 04:13:38;;;;;;;0.00;0.00;;;;;;;;;;5035494;28;99115;-73
2022/06/01 04:16:04;;;;;;;0.00;0.00;;;;;;;;;;5035377;28;99000;-73
2022/06/01 04:18:47;;;;;;;0.00;0.00;;;;;;;;;;5035161;28;98405;-73
2022/06/01 04:21:15;;;;;;;0.00;0.00;;;;;;;;;;5035318;28;99564;-72
2022/06/01 04:23:42;;;;;;;0.00;0.00;;;;;;;;;;5037301;28;100439;-72
2022/06/01 04:26:10;;;;;;;0.00;0.00;;;;;;;;;;5034922;28;100384;-73
2022/06/01 04:28:36;;;;;;;0.00;0.00;;;;;;;;;;5033776;27;99785;-72
2022/06/01 04:31:02;;;;;;;0.00;0.00;;;;;;;;;;5017085;28;98513;-73
2022/06/01 04:33:29;;;;;;;0.00;0.00;;;;;;;;;;5035169;28;98735;-73
2022/06/01 04:35:55;;;;;;;0.00;0.00;;;;;;;;;;5034416;28;99838;-73
2022/06/01 04:38:22;;;;;;;0.00;0.00;;;;;;;;;;5034674;28;98423;-73
2022/06/01 04:40:49;;;;;;;0.00;0.00;;;;;;;;;;5035372;28;98913;-73
2022/06/01 04:43:17;;;;;;;0.00;0.00;;;;;;;;;;5034388;28;99785;-73
2022/06/01 04:45:51;;;;;;;0.00;0.00;;;;;;;;;;5038322;28;98376;-73
2022/06/01 04:48:17;;;;;;;0.00;0.00;;;;;;;;;;5033777;28;100553;-73
2022/06/01 04:50:44;;;;;;;0.10;0.10;;;;;;;;;;5034506;28;98329;-73
2022/06/01 04:53:11;;;;;;;0.00;0.00;;;;;;;;;;5034425;28;99369;-73
2022/06/01 04:55:38;;;;;;;0.00;0.00;;;;;;;;;;5034322;28;100058;-73
2022/06/01 04:58:04;;;;;;;0.00;0.00;;;;;;;;;;5034773;28;98651;-73
2022/06/01 05:00:33;;;;;;;0.00;0.00;;;;;;;;;;5034612;28;99503;-73
2022/06/01 05:03:00;;;;;;;0.00;0.00;;;;;;;;;;5034212;28;99603;-73
2022/06/01 05:05:27;;;;;;;0.00;0.00;;;;;;;;;;5037773;28;97731;-73
2022/06/01 05:07:53;;;;;;;0.00;0.00;;;;;;;;;;5034036;28;99854;-73
2022/06/01 05:10:21;;;;;;;0.00;0.00;;;;;;;;;;5034088;28;98375;-73
2022/06/01 05:12:51;;;;;;;0.00;0.00;;;;;;;;;;5033841;28;99610;-73
2022/06/01 05:15:17;;;;;;;0.08;0.08;;;;;;;;;;5033743;28;99874;-73
2022/06/01 05:17:44;;;;;;;0.20;0.20;;;;;;;;;;5033949;28;98461;-73
2022/06/01 05:20:11;;;;;;;0.10;0.10;;;;;;;;;;5034167;28;98653;-73
2022/06/01 05:22:37;;;;;;;0.30;0.30;;;;;;;;;;5033896;28;99025;-73
2022/06/01 05:25:04;;;;;;;0.10;0.10;;;;;;;;;;5034094;28;98353;-73
2022/06/01 05:27:31;;;;;;;0.45;0.45;;;;;;;;;;5037031;28;98400;-73
2022/06/01 05:29:57;;;;;;;0.00;0.00;;;;;;;;;;5034447;28;97658;-73
2022/06/01 05:32:24;;;;;;;0.20;0.20;;;;;;;;;;5033466;28;99097;-73
2022/06/01 05:34:50;;;;;;;0.10;0.10;;;;;;;;;;5033437;28;100278;-73
2022/06/01 05:37:16;;;;;;;1.60;0.55;;;;;;;;;;5033551;28;100023;-73
2022/06/01 05:39:43;;;;;;;0.10;0.10;;;;;;;;;;5033904;28;100186;-73
2022/06/01 05:42:11;;;;;;;0.10;0.10;;;;;;;;;;5033290;28;99706;-74
2022/06/01 05:44:37;;;;;;;0.65;0.30;;;;;;;;;;5034014;28;98368;-75
2022/06/01 05:47:04;;;;;;;0.10;0.10;;;;;;;;;;5033159;28;99448;-77
2022/06/01 05:49:30;;;;;;;0.20;0.20;;;;;;;;;;5018518;28;103064;-76
2022/06/01 05:51:57;;;;;;;0.10;0.10;;;;;;;;;;5033710;28;98911;-74
2022/06/01 05:54:23;;;;;;;0.00;0.00;;;;;;;;;;5033720;28;98914;-74
2022/06/01 05:56:50;;;;;;;0.10;0.10;;;;;;;;;;5033732;28;98424;-76
2022/06/01 05:59:16;;;;;;;0.10;0.10;;;;;;;;;;5033555;28;98824;-75
2022/06/01 06:01:43;;;;;;;0.15;0.15;;;;;;;;;;5032141;28;100502;-76
2022/06/01 06:04:09;;;;;;;0.32;0.32;;;;;;;;;;5033659;28;98401;-76
2022/06/01 06:06:35;;;;;;;0.08;0.08;;;;;;;;;;5033267;28;99811;-74
2022/06/01 06:09:04;;;;;;;0.52;0.20;;;;;;;;;;5032650;28;99059;-77
2022/06/01 06:11:34;;;;;;;0.10;0.10;;;;;;;;;;5036738;28;98303;-72
2022/06/01 06:14:01;;;;;;;0.10;0.10;;;;;;;;;;5032633;28;100501;-71
2022/06/01 06:16:29;;;;;;;0.00;0.00;;;;;;;;;;5033432;28;98415;-71
2022/06/01 06:18:56;;;;;;;0.10;0.10;;;;;;;;;;5033924;28;99243;-71
2022/06/01 06:21:23;;;;;;;0.08;0.08;;;;;;;;;;5032829;28;99476;-72
2022/06/01 06:23:58;;;;;;;0.10;0.10;;;;;;;;;;5033246;28;98367;-73
2022/06/01 06:26:24;;;;;;;0.08;0.08;;;;;;;;;;5032748;28;99369;-73
2022/06/01 06:28:50;;;;;;;0.10;0.10;;;;;;;;;;5032201;28;99711;-74
2022/06/01 06:31:17;;;;;;;0.05;0.05;;;;;;;;;;5033177;28;98456;-75
2022/06/01 06:33:43;;;;;;;0.10;0.10;;;;;;;;;;5036075;28;99709;-73
2022/06/01 06:36:11;;;;;;;0.00;0.00;;;;;;;;;;5015603;28;99018;-73
2022/06/01 06:38:39;;;;;;;0.10;0.10;;;;;;;;;;5032996;28;99357;-75
2022/06/01 06:41:05;;;;;;;0.00;0.00;;;;;;;;;;5032772;28;99471;-74
2022/06/01 06:43:33;;;;;;;0.10;0.10;;;;;;;;;;5015069;28;98244;-74
2022/06/01 06:46:01;;;;;;;0.10;0.10;;;;;;;;;;5032978;28;98454;-75
2022/06/01 06:48:28;;;;;;;0.13;0.13;;;;;;;;;;5032467;28;99609;-74
2022/06/01 06:50:55;;;;;;;0.10;0.10;;;;;;;;;;5032322;28;99098;-73
2022/06/01 06:53:22;;;;;;;0.00;0.00;;;;;;;;;;5037792;27;99989;-75
2022/06/01 06:55:48;;;;;;;0.20;0.20;;;;;;;;;;5036039;28;98447;-73
2022/06/01 06:58:15;;;;;;;0.00;0.00;;;;;;;;;;5036563;28;98805;-72
2022/06/01 07:00:41;;;;;;;0.00;0.00;;;;;;;;;;5036013;28;99232;-73
2022/06/01 07:03:08;;;;;;;0.10;0.10;;;;;;;;;;5036500;28;98408;-73
2022/06/01 07:08:19;;;;;;;0.00;0.00;;;;;;;;;;5036070;28;98740;-73
2022/06/01 07:10:46;;;;;;;0.10;0.10;;;;;;;;;;5018339;28;98493;-73
2022/06/01 07:13:12;;;;;;;0.10;0.10;;;;;;;;;;5018004;28;101959;-72
2022/06/01 07:15:41;;;;;;;0.10;0.10;;;;;;;;;;5038619;28;100214;-73
2022/06/01 07:18:13;;;;;;;0.52;0.52;;;;;;;;;;5019407;28;100309;-74
2022/06/01 07:20:40;;;;;;;2.45;1.75;;;;;;;;;;5035881;28;99144;-74
2022/06/01 07:23:06;;;;;;;0.20;0.20;;;;;;;;;;5035527;28;98417;-74
2022/06/01 07:25:35;;;;;;;0.10;0.10;;;;;;;;;;5017763;28;100803;-74
2022/06/01 07:28:02;;;;;;;0.10;0.10;;;;;;;;;;5035596;28;99768;-74
2022/06/01 07:30:28;;;;;;;0.00;0.00;;;;;;;;;;5035756;28;98417;-74
2022/06/01 07:32:55;;;;;;;0.38;0.38;;;;;;;;;;5036371;28;99476;-72
2022/06/01 07:35:21;;;;;;;0.00;0.00;;;;;;;;;;5035204;28;99638;-74
2022/06/01 07:43:19;;;;;;;0.10;0.10;;;;;;;;;;5035731;28;98425;-75
2022/06/01 07:45:47;;;;;;;0.00;0.00;;;;;;;;;;5035552;28;98741;-75
2022/06/01 07:48:13;;;;;;;0.10;0.10;;;;;;;;;;5035138;28;99605;-75
2022/06/01 07:51:00;;;;;;;0.00;0.00;;;;;;;;;;5035464;28;98434;-75
2022/06/01 07:53:27;;;;;;;0.08;0.08;;;;;;;;;;5035341;28;99401;-75
2022/06/01 07:55:53;;;;;;;0.00;0.00;;;;;;;;;;5035232;28;99245;-74
2022/06/01 07:58:20;;;;;;;0.05;0.05;;;;;;;;;;5034836;27;97699;-75
2022/06/01 08:00:48;;;;;;;0.10;0.10;;;;;;;;;;5037633;27;98760;-76
2022/06/01 08:03:15;;;;;;;0.10;0.10;;;;;;;;;;5035054;27;98569;-75
2022/06/01 08:05:42;;;;;;;0.00;0.00;;;;;;;;;;5034425;27;99344;-72
2022/06/01 08:08:08;;;;;;;0.00;0.00;;;;;;;;;;5034458;27;100248;-73
2022/06/01 08:10:36;;;;;;;0.10;0.10;;;;;;;;;;5034551;27;99141;-75
2022/06/01 08:13:06;;;;;;;0.00;0.00;;;;;;;;;;5034149;27;99556;-70
2022/06/01 08:15:35;;;;;;;0.00;0.00;;;;;;;;;;5034270;27;99833;-68
2022/06/01 08:18:02;;;;;;;0.10;0.10;;;;;;;;;;5034756;27;98907;-69
2022/06/01 08:20:29;;;;;;;0.00;0.00;;;;;;;;;;5034971;27;98668;-68
2022/06/01 08:22:56;;;;;;;0.10;0.10;;;;;;;;;;5038200;27;98216;-69
2022/06/01 08:25:23;;;;;;;0.08;0.08;;;;;;;;;;5034486;27;98577;-69
2022/06/01 08:27:49;;;;;;;0.10;0.10;;;;;;;;;;5034374;27;99154;-69
2022/06/01 08:30:18;;;;;;;0.13;0.13;;;;;;;;;;5033581;27;99200;-69
2022/06/01 08:32:44;;;;;;;0.00;0.00;;;;;;;;;;5033854;27;101070;-69
2022/06/01 08:35:11;;;;;;;0.10;0.10;;;;;;;;;;5034071;27;99616;-69
2022/06/01 08:37:38;;;;;;;0.10;0.10;;;;;;;;;;5034210;27;98980;-71
2022/06/01 08:40:05;;;;;;;0.10;0.10;;;;;;;;;;5034055;27;99376;-69
2022/06/01 08:42:32;;;;;;;0.00;0.00;;;;;;;;;;5034137;27;99756;-70
2022/06/01 08:45:01;;;;;;;0.10;0.10;;;;;;;;;;5037752;27;98624;-70
2022/06/01 08:47:30;;;;;;;0.10;0.10;;;;;;;;;;5034634;27;98406;-70
2022/06/01 08:49:58;;;;;;;0.10;0.10;;;;;;;;;;5016842;28;98364;-70
2022/06/01 08:52:26;;;;;;;0.00;0.00;;;;;;;;;;5035166;27;99475;-70
2022/06/01 08:54:53;;;;;;;1.35;0.82;;;;;;;;;;5032780;27;100005;-76
2022/06/01 08:57:59;;;;;;;0.20;0.20;;;;;;;;;;5025689;27;98573;-81
2022/06/01 09:00:32;;;;;;;0.10;0.10;;;;;;;;;;4952888;28;98430;-77
2022/06/01 09:03:09;;;;;;;0.10;0.10;;;;;;;;;;5018167;27;101797;-79
2022/06/01 09:05:40;;;;;;;0.10;0.10;;;;;;;;;;5037253;27;98480;-76
2022/06/01 09:08:25;;;;;;;0.00;0.00;;;;;;;;;;5033426;27;99486;-76
2022/06/01 09:11:10;;;;;;;0.03;0.03;;;;;;;;;;5033710;27;98464;-76
2022/06/01 09:13:52;;;;;;;0.25;0.25;;;;;;;;;;5034292;27;98823;-77
2022/06/01 09:16:45;;;;;;;0.10;0.10;;;;;;;;;;5032791;27;100275;-76
2022/06/01 09:19:19;;;;;;;0.10;0.10;;;;;;;;;;5029464;27;99700;-77
2022/06/01 09:24:37;;;;;;;;;;;;;;;;;;5033795;27;99980;-77
2022/06/01 09:27:03;;;;;;;0.10;0.10;;;;;;;;;;5032536;27;113799;-77
2022/06/01 09:29:32;;;;;;;0.10;0.10;;;;;;;;;;5036437;27;99831;-76
2022/06/01 09:32:04;;;;;;;0.10;0.10;;;;;;;;;;5036238;27;98615;-77
2022/06/01 09:34:47;;;;;;;0.10;0.10;;;;;;;;;;5032919;27;99793;-74
2022/06/01 09:37:22;;;;;;;0.15;0.15;;;;;;;;;;5032955;27;98965;-75
2022/06/01 09:40:00;;;;;;;0.00;0.00;;;;;;;;;;5033732;27;98587;-75
2022/06/01 09:42:34;;;;;;;0.10;0.10;;;;;;;;;;5036258;27;99412;-76
2022/06/01 09:45:02;;;;;;;0.10;0.10;;;;;;;;;;5014545;28;101478;-75
2022/06/01 09:47:37;;;;;;;0.63;0.63;;;;;;;;;;5032583;27;99150;-75
2022/06/01 09:50:06;;;;;;;0.00;0.00;;;;;;;;;;5015205;28;100667;-75
2022/06/01 09:52:38;;;;;;;0.10;0.10;;;;;;;;;;5039403;27;99004;-76
2022/06/01 09:55:24;;;;;;;0.10;0.10;;;;;;;;;;5032939;27;99659;-75
2022/06/01 09:57:59;;;;;;;0.10;0.10;;;;;;;;;;5032698;27;99964;-75
2022/06/01 10:06:06;;;;;;;0.00;0.00;;;;;;;;;;5032951;27;99488;-75
2022/06/01 10:08:35;;;;;;;0.20;0.20;;;;;;;;;;5032732;27;98490;-73
2022/06/01 10:11:19;;;;;;;0.00;0.00;;;;;;;;;;5032441;27;99276;-74
2022/06/01 10:13:50;;;;;;;0.10;0.10;;;;;;;;;;5032030;27;99943;-78
2022/06/01 10:16:24;;;;;;;0.10;0.10;;;;;;;;;;5035821;27;98451;-76
2022/06/01 10:18:53;;;;;;;0.10;0.10;;;;;;;;;;5032558;27;98947;-75
2022/06/01 10:21:23;;;;;;;0.00;0.00;;;;;;;;;;5033452;27;98406;-76
2022/06/01 10:23:53;;;;;;;0.10;0.10;;;;;;;;;;5032577;27;99482;-75
2022/06/01 10:26:23;;;;;;;0.00;0.00;;;;;;;;;;5031822;27;100352;-75
2022/06/01 10:28:56;;;;;;;0.10;0.10;;;;;;;;;;5031436;27;98533;-75
2022/06/01 10:31:28;;;;;;;0.05;0.05;;;;;;;;;;5033843;27;97726;-79
2022/06/01 10:34:02;;;;;;;0.05;0.05;;;;;;;;;;5032321;27;99944;-79
2022/06/01 10:36:47;;;;;;;0.10;0.10;;;;;;;;;;5032650;27;98404;-79
2022/06/01 10:39:35;;;;;;;0.25;0.10;;;;;;;;;;5034675;27;99701;-78
2022/06/01 10:42:20;;;;;;;0.03;0.03;;;;;;;;;;5033663;27;99414;-79
2022/06/01 10:44:50;;;;;;;0.10;0.10;;;;;;;;;;5032408;27;99291;-75
2022/06/01 10:47:16;;;;;;;0.10;0.10;;;;;;;;;;5031979;27;99140;-78
2022/06/01 10:49:42;;;;;;;0.10;0.10;;;;;;;;;;5032345;27;98469;-76
2022/06/01 10:52:26;;;;;;;0.10;0.10;;;;;;;;;;5034003;27;98767;-78
2022/06/01 10:54:58;;;;;;;0.00;0.00;;;;;;;;;;5031478;27;100102;-71
2022/06/01 10:57:25;;;;;;;0.00;0.00;;;;;;;;;;5032838;27;97520;-75
2022/06/01 10:59:52;;;;;;;0.03;0.03;;;;;;;;;;5031902;27;98483;-75
2022/06/01 11:02:24;;;;;;;0.10;0.10;;;;;;;;;;5037119;27;100179;-74
2022/06/01 11:04:55;;;;;;;0.00;0.00;;;;;;;;;;5031644;27;99073;-74
2022/06/01 11:07:32;;;;;;;0.00;0.00;;;;;;;;;;5031662;27;98442;-74
2022/06/01 11:10:06;;;;;;;0.10;0.10;;;;;;;;;;5031704;27;98441;-74
2022/06/01 11:12:45;;;;;;;0.00;0.00;;;;;;;;;;5034306;27;99313;-75
2022/06/01 11:15:11;;;;;;;0.10;0.10;;;;;;;;;;5031884;27;99120;-75
2022/06/01 11:17:50;;;;;;;0.20;0.20;;;;;;;;;;5005778;28;98474;-74
2022/06/01 11:20:25;;;;;;;0.10;0.10;;;;;;;;;;5032584;28;99161;-75
2022/06/01 11:22:59;;;;;;;0.10;0.10;;;;;;;;;;5035561;28;98738;-75
2022/06/01 11:25:55;;;;;;;0.00;0.00;;;;;;;;;;5032645;28;98539;-74
2022/06/01 11:28:27;;;;;;;0.10;0.10;;;;;;;;;;4985070;28;100836;-73
2022/06/01 11:31:17;;;;;;;0.00;0.00;;;;;;;;;;5031899;28;99109;-74
2022/06/01 11:33:45;;;;;;;0.10;0.10;;;;;;;;;;5032265;28;100148;-74
2022/06/01 11:36:14;;;;;;;0.00;0.00;;;;;;;;;;5032017;28;99915;-74
2022/06/01 11:38:44;;;;;;;0.00;0.00;;;;;;;;;;5033378;27;98352;-74
2022/06/01 11:41:24;;;;;;;0.03;0.03;;;;;;;;;;5035829;28;98850;-74
2022/06/01 11:43:58;;;;;;;0.00;0.00;;;;;;;;;;5034880;28;99594;-74
2022/06/01 11:46:42;;;;;;;1.08;1.08;;;;;;;;;;5039063;28;98282;-74
2022/06/01 11:49:26;;;;;;;0.17;0.17;;;;;;;;;;5035928;28;99063;-74
2022/06/01 11:51:54;;;;;;;0.10;0.10;;;;;;;;;;5035544;28;98423;-73
2022/06/01 11:54:25;;;;;;;0.00;0.00;;;;;;;;;;5035599;28;98825;-75
2022/06/01 11:56:52;;;;;;;;;;;;;;;;;;5035171;28;99758;-75
2022/06/01 11:59:27;;;;;;;0.10;0.10;;;;;;;;;;5034999;28;117389;-75
2022/06/01 12:02:12;;;;;;;0.00;0.00;;;;;;;;;;5035426;28;99931;-75
2022/06/01 12:04:39;;;;;;;0.00;0.00;;;;;;;;;;5034737;28;99663;-75
2022/06/01 12:07:13;;;;;;;0.10;0.10;;;;;;;;;;5035374;28;98332;-75
2022/06/01 12:09:48;;;;;;;0.10;0.10;;;;;;;;;;5037956;28;99324;-75
2022/06/01 12:12:26;;;;;;;0.20;0.20;;;;;;;;;;5035175;28;98357;-75
2022/06/01 12:15:01;;;;;;;0.03;0.03;;;;;;;;;;5035818;28;99304;-75
2022/06/01 12:17:29;;;;;;;0.00;0.00;;;;;;;;;;5034943;28;100044;-74
2022/06/01 12:20:11;;;;;;;0.00;0.00;;;;;;;;;;5035171;28;98376;-74
2022/06/01 12:29:26;;;;;;;1.20;0.60;;;;;;;;;;5055651;27;98290;-79
2022/06/01 12:31:53;;;;;;;0.10;0.10;;;;;;;;;;5055045;27;98759;-78
2022/06/01 12:34:28;;;;;;;0.10;0.10;;;;;;;;;;5040685;27;99146;-78
2022/06/01 12:49:49;;;;;;;0.00;0.00;;;;;;;;;;4971257;28;98623;-82
2022/06/01 12:52:52;;;;;;;;;;;;;;;;;;;;;
2022/06/01 13:03:29;;;;;;;0.00;0.00;;;;;;;;;;4951921;28;99133;-82
2022/06/01 13:06:06;;;;;;;0.10;0.10;;;;;;;;;;4959753;28;98577;-78
2022/06/01 13:08:33;;;;;;;0.00;0.00;;;;;;;;;;5038130;27;99203;-75
2022/06/01 13:11:15;;;;;;;0.03;0.03;;;;;;;;;;5033786;27;98492;-75
2022/06/01 13:13:43;;;;;;;0.00;0.00;;;;;;;;;;5037322;27;99372;-74
2022/06/01 13:16:10;;;;;;;0.00;0.00;;;;;;;;;;5033732;27;98934;-74
2022/06/01 13:18:40;;;;;;;0.10;0.10;;;;;;;;;;5033461;27;98418;-74
2022/06/01 13:21:09;;;;;;;0.00;0.00;;;;;;;;;;5033809;27;99329;-74
2022/06/01 13:23:56;;;;;;;0.10;0.10;;;;;;;;;;5036281;27;100876;-75
2022/06/01 13:26:28;;;;;;;0.20;0.20;;;;;;;;;;5015581;28;98341;-75
2022/06/01 13:28:58;;;;;;;0.10;0.10;;;;;;;;;;5036388;27;99299;-74
2022/06/01 13:31:24;;;;;;;0.20;0.20;;;;;;;;;;5033499;27;98379;-74
2022/06/01 13:33:51;;;;;;;0.10;0.10;;;;;;;;;;5037449;27;99198;-73
2022/06/01 13:36:27;;;;;;;0.00;0.00;;;;;;;;;;5032757;27;99035;-73
2022/06/01 13:39:00;;;;;;;0.00;0.00;;;;;;;;;;5033345;27;98237;-74
2022/06/01 13:41:34;;;;;;;0.00;0.00;;;;;;;;;;5033520;27;99955;-74
2022/06/01 13:44:11;;;;;;;0.10;0.10;;;;;;;;;;5033099;27;100074;-74
2022/06/01 13:46:42;;;;;;;0.25;0.25;;;;;;;;;;5033127;27;98621;-74
2022/06/01 13:49:10;;;;;;;0.00;0.00;;;;;;;;;;5035512;27;99522;-74
2022/06/01 13:51:36;;;;;;;0.17;0.17;;;;;;;;;;5032973;27;98376;-74
2022/06/01 13:54:17;;;;;;;0.10;0.10;;;;;;;;;;5033078;27;99240;-74
2022/06/01 13:56:44;;;;;;;0.10;0.10;;;;;;;;;;5032858;27;99599;-75
2022/06/01 13:59:26;;;;;;;0.28;0.28;;;;;;;;;;5033031;27;99109;-75
2022/06/01 14:02:01;;;;;;;0.10;0.10;;;;;;;;;;5033913;27;99442;-74
2022/06/01 14:04:30;;;;;;;0.10;0.10;;;;;;;;;;5032710;27;99511;-74
2022/06/01 14:07:05;;;;;;;0.10;0.10;;;;;;;;;;5033457;27;97745;-74
2022/06/01 14:09:33;;;;;;;0.10;0.10;;;;;;;;;;5035211;27;98730;-73
2022/06/01 14:12:02;;;;;;;0.10;0.10;;;;;;;;;;5035945;27;99451;-73
2022/06/01 14:14:32;;;;;;;0.10;0.10;;;;;;;;;;5032333;27;99756;-73
2022/06/01 14:17:00;;;;;;;0.10;0.10;;;;;;;;;;5032091;27;100560;-76
2022/06/01 14:19:32;;;;;;;0.00;0.00;;;;;;;;;;5015946;28;98480;-75
2022/06/01 14:21:59;;;;;;;0.08;0.08;;;;;;;;;;5034626;27;99722;-74
2022/06/01 14:24:25;;;;;;;0.00;0.00;;;;;;;;;;5031903;27;99929;-74
2022/06/01 14:29:37;;;;;;;0.00;0.00;;;;;;;;;;5032557;27;99340;-73
2022/06/01 14:32:09;;;;;;;0.08;0.08;;;;;;;;;;5034697;27;98862;-74
2022/06/01 14:34:36;;;;;;;0.00;0.00;;;;;;;;;;5035986;27;98566;-75
2022/06/01 14:37:02;;;;;;;0.00;0.00;;;;;;;;;;5031798;27;100185;-75
2022/06/01 14:39:29;;;;;;;6.05;3.53;;;;;;;;;;5032114;27;99208;-74
2022/06/01 14:41:57;;;;;;;0.05;0.05;;;;;;;;;;5034744;27;100850;-74
2022/06/01 14:44:26;;;;;;;0.10;0.10;;;;;;;;;;5032201;27;99754;-76
2022/06/01 14:46:52;;;;;;;0.10;0.10;;;;;;;;;;5032275;27;98488;-76
2022/06/01 14:49:19;;;;;;;0.10;0.10;;;;;;;;;;5013358;27;101335;-78
2022/06/01 14:51:54;;;;;;;0.25;0.25;;;;;;;;;;5032447;27;99526;-74
2022/06/01 14:54:22;;;;;;;0.10;0.10;;;;;;;;;;5033150;27;98353;-75
2022/06/01 14:56:54;;;;;;;0.10;0.10;;;;;;;;;;5035776;27;99213;-75
2022/06/01 14:59:21;;;;;;;0.10;0.10;;;;;;;;;;5014755;27;98385;-73
2022/06/01 15:01:48;;;;;;;0.10;0.10;;;;;;;;;;5033237;27;99970;-74
2022/06/01 15:04:17;;;;;;;0.10;0.10;;;;;;;;;;5033121;27;100364;-78
2022/06/01 15:06:46;;;;;;;0.10;0.10;;;;;;;;;;5031962;27;98562;-77
2022/06/01 15:09:13;;;;;;;0.00;0.00;;;;;;;;;;5032061;27;98818;-76
2022/06/01 15:11:40;;;;;;;0.00;0.00;;;;;;;;;;5031667;27;99238;-76
2022/06/01 15:14:08;;;;;;;0.20;0.20;;;;;;;;;;5037748;27;99400;-74
2022/06/01 15:16:34;;;;;;;0.75;0.75;;;;;;;;;;5035709;27;99412;-75
2022/06/01 15:19:01;;;;;;;0.10;0.10;;;;;;;;;;5037765;27;99129;-76
2022/06/01 15:21:27;;;;;;;0.00;0.00;;;;;;;;;;5036093;27;98673;-76
2022/06/01 15:23:55;;;;;;;0.10;0.10;;;;;;;;;;5035067;27;100164;-78
2022/06/01 15:26:23;;;;;;;0.00;0.00;;;;;;;;;;5035350;27;98529;-77
2022/06/01 15:28:50;;;;;;;0.05;0.05;;;;;;;;;;5035167;27;99693;-76
2022/06/01 15:39:37;;;;;;;0.00;0.00;;;;;;;;;;5034850;27;99557;-76
2022/06/01 15:42:09;;;;;;;0.10;0.10;;;;;;;;;;5021407;27;98663;-76
2022/06/01 15:44:36;;;;;;;0.03;0.03;;;;;;;;;;5034897;27;99593;-77
2022/06/01 15:47:08;;;;;;;0.10;0.10;;;;;;;;;;5017654;27;98119;-76
2022/06/01 15:49:36;;;;;;;0.10;0.10;;;;;;;;;;5034900;27;99426;-71
2022/06/01 15:52:09;;;;;;;0.10;0.10;;;;;;;;;;5036124;27;100087;-73
2022/06/01 15:54:35;;;;;;;0.10;0.10;;;;;;;;;;5034254;27;99791;-75
2022/06/01 15:57:02;;;;;;;0.00;0.00;;;;;;;;;;5045690;27;100012;-75
2022/06/01 15:59:32;;;;;;;0.00;0.00;;;;;;;;;;5055339;27;99513;-78
2022/06/01 16:02:03;;;;;;;0.10;0.10;;;;;;;;;;5059284;27;98444;-76